Terminal Aerodrome Forecast
Issued by NWS Albany, NY

Home | Current Version | Previous Version | Text Only | Print | Product List | Glossary On
Versions: 1 2 3 4 5 6 7 8 9 10 11 12 13
521
FTUS41 KALY 210520
TAFALB
TAF
KALB 210520Z 2106/2206 30004KT P6SM FEW250
     FM212300 27007KT P6SM FEW200
     FM220300 VRB03KT P6SM SCT200=

USA.gov is the U.S. government's official web portal to all federal, state and local government web resources and services.